EW2676 Weather Reports


Display with metric or nautical units.
time (UTC)temp
F
wind
direction
speed
MPH
gust
MPH
rain 1hr
in
rain 24hr
in
rain mn
in
humidity
%
barometer
mb
20190321071738 60 347 6.0 8.0 0.00 0.00 0.00 76 1025.0
20190321070308 60 336 7.0 9.0 0.00 0.00 0.00 74 1025.0
20190321064752 60 342 5.0 9.0 0.00 0.00 0.00 74 1025.0
20190321063135 61 350 7.0 11.0 0.00 0.00 0.00 74 1025.0
20190321061615 61 346 9.0 12.0 0.00 0.00 0.00 73 1025.0
20190321060141 61 348 11.0 15.0 0.00 0.00 0.00 73 1025.1
20190321054641 61 350 10.0 12.0 0.00 0.00 0.00 75 1025.0
20190321053124 61 349 9.0 11.0 0.00 0.00 0.00 75 1025.0
20190321051620 61 355 9.0 13.0 0.00 0.00 0.00 74 1025.1
20190321050153 62 348 10.0 14.0 0.00 0.00 0.00 76 1025.1
20190321044559 62 349 10.0 14.0 0.00 0.00 0.00 76 1025.1
20190321043118 62 355 10.0 12.0 0.00 0.00 0.00 78 1025.0
20190321040049 62 275 0.0 0.0 0.00 0.00 0.00 78 1024.8
20190321033059 62 268 1.0 3.0 0.00 0.00 0.00 77 1024.4
20190321031605 63 273 0.0 3.0 0.00 0.00 0.00 74 1024.3
20190321030100 64 276 1.0 4.0 0.00 0.00 0.00 74 1024.2
20190321024538 64 300 3.0 6.0 0.00 0.00 0.00 73 1024.0
20190321023057 64 291 3.0 4.0 0.00 0.00 0.00 73 1023.8
20190321021626 65 273 1.0 3.0 0.00 0.00 0.00 69 1023.7
20190321020100 66 303 2.0 4.0 0.00 0.00 0.00 69 1023.5
20190321014549 67 314 4.0 6.0 0.00 0.00 0.00 67 1023.2
20190321013045 67 344 5.0 8.0 0.00 0.00 0.00 64 1023.1
20190321011554 68 315 4.0 9.0 0.00 0.00 0.00 62 1023.0
20190321010042 68 325 7.0 12.0 0.00 0.00 0.00 60 1023.0
20190321004546 69 316 6.0 10.0 0.00 0.00 0.00 56 1022.8
20190321003100 69 329 4.0 7.0 0.00 0.00 0.00 56 1022.8
20190321001527 69 311 7.0 9.0 0.00 0.00 0.00 53 1022.6
20190321000041 69 312 4.0 6.0 0.00 0.00 0.00 52 1022.5
20190320234612 70 320 4.0 6.0 0.00 0.00 0.00 54 1022.5
20190320233023 71 346 1.0 5.0 0.00 0.00 0.00 48 1022.5
20190320231545 71 296 3.0 6.0 0.00 0.00 0.00 47 1022.4
20190320230039 71 292 5.0 9.0 0.00 0.00 0.00 52 1022.3
20190320224522 70 290 5.0 9.0 0.00 0.00 0.00 53 1022.4
20190320223040 70 324 3.0 7.0 0.00 0.00 0.00 50 1022.4
20190320221522 70 24 4.0 6.0 0.00 0.00 0.00 47 1022.3
20190320220023 71 11 5.0 9.0 0.00 0.00 0.00 47 1022.4
20190320214510 70 306 4.0 6.0 0.00 0.00 0.00 50 1022.6
20190320213007 70 80 1.0 3.0 0.00 0.00 0.00 45 1022.6
20190320211504 69 44 2.0 3.0 0.00 0.00 0.00 46 1022.9
20190320210339 69 67 3.0 5.0 0.00 0.00 0.00 49 1022.9
20190320204640 69 32 4.0 5.0 0.00 0.00 0.00 46 1023.0
20190320203157 68 182 1.0 4.0 0.00 0.00 0.00 45 1023.1
20190320201707 68 49 4.0 6.0 0.00 0.00 0.00 53 1023.3
20190320200140 68 42 3.0 7.0 0.00 0.00 0.00 46 1023.3
20190320194708 67 52 3.0 7.0 0.00 0.00 0.00 45 1023.6
20190320193157 67 88 4.0 5.0 0.00 0.00 0.00 50 1024.0
20190320191620 66 42 2.0 5.0 0.00 0.00 0.00 60 1024.4
20190320190113 65 35 5.0 6.0 0.00 0.00 0.00 61 1024.7
20190320184616 65 15 3.0 4.0 0.00 0.00 0.00 57 1024.9
20190320183124 65 9 3.0 4.0 0.00 0.00 0.00 60 1025.1
20190320181619 64 19 4.0 5.0 0.00 0.00 0.00 63 1025.4
20190320180056 64 5 3.0 5.0 0.00 0.00 0.00 62 1025.8
20190320174622 64 24 2.0 4.0 0.00 0.00 0.00 68 1025.9
20190320173122 63 42 3.0 4.0 0.00 0.00 0.00 60 1026.1
20190320171553 62 30 3.0 5.0 0.00 0.00 0.00 65 1026.2
20190320170117 62 17 3.0 4.0 0.00 0.00 0.00 63 1026.4
20190320164542 61 34 4.0 5.0 0.00 0.00 0.00 67 1026.4
20190320163039 61 17 3.0 4.0 0.00 0.00 0.00 69 1026.6
20190320161521 60 15 3.0 4.0 0.00 0.00 0.00 73 1026.7
20190320160009 60 5 2.0 3.0 0.00 0.00 0.00 71 1026.7
20190320154506 60 207 0.0 0.0 0.00 0.00 0.00 67 1026.9
20190320153232 59 207 0.0 1.0 0.00 0.00 0.00 72 1027.0
20190320151627 58 207 0.0 0.0 0.00 0.00 0.00 75 1027.0
20190320150135 58 207 0.0 2.0 0.00 0.00 0.00 80 1027.0
20190320144650 57 198 0.0 0.0 0.00 0.00 0.00 82 1026.9
20190320143206 56 195 0.0 1.0 0.00 0.00 0.00 83 1026.8
20190320141614 55 195 0.0 0.0 0.00 0.00 0.00 84 1026.6
20190320140118 55 196 0.0 2.0 0.00 0.00 0.00 86 1026.4
20190320134604 54 195 0.0 1.0 0.00 0.00 0.00 89 1026.3
20190320133029 53 195 0.0 0.0 0.00 0.00 0.00 92 1026.0
20190320131532 51 196 0.0 0.0 0.00 0.00 0.00 92 1025.9
20190320130056 51 196 0.0 0.0 0.00 0.00 0.00 92 1025.6
20190320124521 50 196 0.0 1.0 0.00 0.00 0.00 91 1025.5
20190320123013 50 196 0.0 0.0 0.00 0.00 0.00 90 1025.4
20190320121508 51 196 0.0 0.0 0.00 0.00 0.00 90 1025.1
20190320120005 51 196 0.0 0.0 0.00 0.00 0.00 89 1025.1
20190320114501 51 196 0.0 0.0 0.00 0.00 0.00 88 1025.0
20190320113207 51 196 0.0 0.0 0.00 0.00 0.00 87 1024.8
20190320111723 52 196 0.0 0.0 0.00 0.00 0.00 87 1024.7
20190320110118 52 196 0.0 0.0 0.00 0.00 0.00 87 1024.4
20190320104617 52 196 0.0 1.0 0.00 0.00 0.00 87 1024.3
20190320103119 52 196 0.0 0.0 0.00 0.00 0.00 86 1024.3
20190320101643 52 196 0.0 0.0 0.00 0.00 0.00 85 1024.2
20190320100129 52 196 0.0 0.0 0.00 0.00 0.00 84 1024.1
20190320094715 52 196 0.0 0.0 0.00 0.00 0.00 81 1024.0
20190320093217 52 196 0.0 0.0 0.00 0.00 0.00 79 1024.0
20190320091704 53 196 0.0 0.0 0.00 0.00 0.00 78 1024.2
20190320090138 53 196 0.0 0.0 0.00 0.00 0.00 77 1024.3
20190320084639 53 196 0.0 2.0 0.00 0.00 0.00 74 1024.3
20190320083051 54 186 1.0 3.0 0.00 0.00 0.00 72 1024.5
20190320081557 55 141 0.0 0.0 0.00 0.00 0.00 68 1024.6
20190320080059 55 141 0.0 0.0 0.00 0.00 0.00 69 1024.7
20190320074555 56 141 0.0 0.0 0.00 0.00 0.00 67 1025.0
20190320073048 56 141 0.0 0.0 0.00 0.00 0.00 66 1024.9